Vanquish — PHCU — position and weather

sailwx.info

Track history (hours):
 
Tides and Currents Weather Stations Pressure Air Temp Water Temp Dewpoint Dewpoint Depression Visibility Wind Speed Wind Dir Waves Ship Positions

Vanquish

Last reported at 2015-Sep-02 09:23 UTC. Time now 2015-Sep-02 23:54 UTC.
Position N 51°26' W 002°58'.

MMSI: 246138952.

Date/timePositionNaut miles runAvg speedWind from/ knotsBaromVisibWave heightAir tempDewpointWater temp
2015-Sep-02 09:23N 51°26' W 002°58'1012.4
2015-Sep-02 08:33N 51°30' W 002°43'1 0.5
2015-Sep-02 07:31N 51°30' W 002°42'0 0.0
2015-Sep-02 06:31N 51°30' W 002°42'0 0.0
2015-Sep-02 05:31N 51°30' W 002°42'0 0.0
2015-Sep-02 04:31N 51°30' W 002°42'0 0.0
2015-Sep-02 03:31N 51°30' W 002°42'0 0.0
2015-Sep-02 02:31N 51°30' W 002°42'0 0.0
2015-Sep-02 01:31N 51°30' W 002°42'0 0.0
2015-Sep-02 00:31N 51°30' W 002°42'0 0.0
2015-Sep-01 23:31N 51°30' W 002°42'0 0.0
2015-Sep-01 22:31N 51°30' W 002°42'0 0.0
2015-Sep-01 21:31N 51°30' W 002°42'0 0.0
2015-Sep-01 20:31N 51°30' W 002°42'0 0.1
2015-Sep-01 19:33N 51°30' W 002°42'1 0.6
2015-Sep-01 18:33N 51°31' W 002°43'1212.2
2015-Sep-01 17:34N 51°26' W 003°01'105 8.7
2015-Sep-01 05:24N 52°14' W 005°33'9015.4
2015-Aug-31 23:33N 53°43' W 005°54'1313.5
2015-Aug-31 22:33N 53°56' W 006°00'1110.9
2015-Aug-31 21:33N 54°04' W 006°12'3 0.1
2015-Aug-31 00:33N 54°02' W 006°08'1413.6
2015-Aug-30 23:33N 53°50' W 005°58'7016.9
2015-Aug-30 19:26N 52°42' W 005°34'1517.2
2015-Aug-30 18:32N 52°26' W 005°34'1616.1
2015-Aug-30 17:33N 52°11' W 005°33'10312.8
2015-Aug-30 09:30N 51°23' W 003°05'1617.0
2015-Aug-30 08:34N 51°30' W 002°43'0 0.4
2015-Aug-30 07:32N 51°30' W 002°42'0 0.0
2015-Aug-30 06:31N 51°30' W 002°42'0 0.0
2015-Aug-30 05:32N 51°30' W 002°42'0 0.0
2015-Aug-30 04:31N 51°30' W 002°42'0 0.0
2015-Aug-30 03:32N 51°30' W 002°42'0 0.0
2015-Aug-30 02:31N 51°30' W 002°42'0 0.0
2015-Aug-30 01:32N 51°30' W 002°42'0 0.0
2015-Aug-30 00:31N 51°30' W 002°42'0 0.0
2015-Aug-29 23:31N 51°30' W 002°42'0 0.0
2015-Aug-29 22:32N 51°30' W 002°42'0 0.0
2015-Aug-29 21:31N 51°30' W 002°42'0 0.0
2015-Aug-29 20:31N 51°30' W 002°42'0 0.0
2015-Aug-29 19:31N 51°30' W 002°42'0 0.0
2015-Aug-29 18:32N 51°30' W 002°42'0 0.0
2015-Aug-29 17:32N 51°30' W 002°42'0 0.4
2015-Aug-29 16:33N 51°30' W 002°43'3 3.3
2015-Aug-29 15:33N 51°30' W 002°48'108 9.7
2015-Aug-29 04:21N 52°08' W 005°31'1012.7
2015-Aug-29 03:32N 52°18' W 005°33'8614.4
2015-Aug-28 21:34N 53°44' W 005°56'1313.1
2015-Aug-28 20:34N 53°56' W 006°02'1210.2
2015-Aug-28 19:24N 54°05' W 006°14'2 0.1
2015-Aug-27 09:25N 54°04' W 006°12'1112.8
2015-Aug-27 08:33N 53°55' W 006°01'18410.6
2015-Aug-26 15:10N 51°23' W 003°10'813.5
2015-Aug-26 14:33N 51°26' W 002°58'1010.4
2015-Aug-26 13:33N 51°30' W 002°43'0 0.3
2015-Aug-26 12:33N 51°30' W 002°42'0 0.0
2015-Aug-26 11:33N 51°30' W 002°42'0 0.0
2015-Aug-26 10:33N 51°30' W 002°42'0 0.0
2015-Aug-26 09:33N 51°30' W 002°42'0 0.0
2015-Aug-26 08:33N 51°30' W 002°42'0 0.0
2015-Aug-26 07:33N 51°30' W 002°42'0 0.0
2015-Aug-26 06:33N 51°30' W 002°42'0 0.0
2015-Aug-26 05:33N 51°30' W 002°42'0 0.0
2015-Aug-26 04:33N 51°30' W 002°42'0 0.0
2015-Aug-26 03:33N 51°30' W 002°42'0 0.0
2015-Aug-26 02:33N 51°30' W 002°42'0 0.0
2015-Aug-26 01:33N 51°30' W 002°42'0 0.0
2015-Aug-26 00:33N 51°30' W 002°42'0 0.0
2015-Aug-25 23:33N 51°30' W 002°42'0 0.0
2015-Aug-25 22:33N 51°30' W 002°42'0 0.0
2015-Aug-25 21:33N 51°30' W 002°42'0 0.0
2015-Aug-25 20:33N 51°30' W 002°42'0 0.0
2015-Aug-25 19:33N 51°30' W 002°42'0 0.0
2015-Aug-25 18:33N 51°30' W 002°42'0 0.0
2015-Aug-25 17:33N 51°30' W 002°42'0 0.0
2015-Aug-25 16:33N 51°30' W 002°42'0 0.0
2015-Aug-25 15:33N 51°30' W 002°42'0 0.5
2015-Aug-25 14:33N 51°30' W 002°43'8 8.0
2015-Aug-25 13:33N 51°28' W 002°55'106 9.5
2015-Aug-25 02:26N 52°10' W 005°32'2412.4
2015-Aug-25 00:29N 52°34' W 005°33'6114.2
2015-Aug-24 20:13N 53°34' W 005°49'1014.4
2015-Aug-24 19:33N 53°43' W 005°54'1414.1
2015-Aug-24 18:33N 53°57' W 006°01'1211.7
2015-Aug-24 17:31N 54°06' W 006°15'2 0.2
2015-Aug-24 04:18N 54°04' W 006°12'1013.5
2015-Aug-24 03:33N 53°56' W 006°01'18610.8
2015-Aug-23 10:22N 51°26' W 003°01'1011.7
2015-Aug-23 09:34N 51°30' W 002°48'  
Track history (hours):
 
Tides and Currents Weather Stations Pressure Air Temp Water Temp Dewpoint Dewpoint Depression Visibility Wind Speed Wind Dir Waves Ship Positions

Vanquish

Last reported at 2015-Sep-02 09:23 UTC. Time now 2015-Sep-02 23:54 UTC.
Position N 51°26' W 002°58'.

MMSI: 246138952.

Date/timePositionNaut miles runAvg speedWind from/ knotsBaromVisibWave heightAir tempDewpointWater temp
2015-Sep-02 09:23N 51°26' W 002°58'1012.4
2015-Sep-02 08:33N 51°30' W 002°43'1 0.5
2015-Sep-02 07:31N 51°30' W 002°42'0 0.0
2015-Sep-02 06:31N 51°30' W 002°42'0 0.0
2015-Sep-02 05:31N 51°30' W 002°42'0 0.0
2015-Sep-02 04:31N 51°30' W 002°42'0 0.0
2015-Sep-02 03:31N 51°30' W 002°42'0 0.0
2015-Sep-02 02:31N 51°30' W 002°42'0 0.0
2015-Sep-02 01:31N 51°30' W 002°42'0 0.0
2015-Sep-02 00:31N 51°30' W 002°42'0 0.0
2015-Sep-01 23:31N 51°30' W 002°42'0 0.0
2015-Sep-01 22:31N 51°30' W 002°42'0 0.0
2015-Sep-01 21:31N 51°30' W 002°42'0 0.0
2015-Sep-01 20:31N 51°30' W 002°42'0 0.1
2015-Sep-01 19:33N 51°30' W 002°42'1 0.6
2015-Sep-01 18:33N 51°31' W 002°43'1212.2
2015-Sep-01 17:34N 51°26' W 003°01'105 8.7
2015-Sep-01 05:24N 52°14' W 005°33'9015.4
2015-Aug-31 23:33N 53°43' W 005°54'1313.5
2015-Aug-31 22:33N 53°56' W 006°00'1110.9
2015-Aug-31 21:33N 54°04' W 006°12'3 0.1
2015-Aug-31 00:33N 54°02' W 006°08'1413.6
2015-Aug-30 23:33N 53°50' W 005°58'7016.9
2015-Aug-30 19:26N 52°42' W 005°34'1517.2
2015-Aug-30 18:32N 52°26' W 005°34'1616.1
2015-Aug-30 17:33N 52°11' W 005°33'10312.8
2015-Aug-30 09:30N 51°23' W 003°05'1617.0
2015-Aug-30 08:34N 51°30' W 002°43'0 0.4
2015-Aug-30 07:32N 51°30' W 002°42'0 0.0
2015-Aug-30 06:31N 51°30' W 002°42'0 0.0
2015-Aug-30 05:32N 51°30' W 002°42'0 0.0
2015-Aug-30 04:31N 51°30' W 002°42'0 0.0
2015-Aug-30 03:32N 51°30' W 002°42'0 0.0
2015-Aug-30 02:31N 51°30' W 002°42'0 0.0
2015-Aug-30 01:32N 51°30' W 002°42'0 0.0
2015-Aug-30 00:31N 51°30' W 002°42'0 0.0
2015-Aug-29 23:31N 51°30' W 002°42'0 0.0
2015-Aug-29 22:32N 51°30' W 002°42'0 0.0
2015-Aug-29 21:31N 51°30' W 002°42'0 0.0
2015-Aug-29 20:31N 51°30' W 002°42'0 0.0
2015-Aug-29 19:31N 51°30' W 002°42'0 0.0
2015-Aug-29 18:32N 51°30' W 002°42'0 0.0
2015-Aug-29 17:32N 51°30' W 002°42'0 0.4
2015-Aug-29 16:33N 51°30' W 002°43'3 3.3
2015-Aug-29 15:33N 51°30' W 002°48'108 9.7
2015-Aug-29 04:21N 52°08' W 005°31'1012.7
2015-Aug-29 03:32N 52°18' W 005°33'8614.4
2015-Aug-28 21:34N 53°44' W 005°56'1313.1
2015-Aug-28 20:34N 53°56' W 006°02'1210.2
2015-Aug-28 19:24N 54°05' W 006°14'2 0.1
2015-Aug-27 09:25N 54°04' W 006°12'1112.8
2015-Aug-27 08:33N 53°55' W 006°01'18410.6
2015-Aug-26 15:10N 51°23' W 003°10'813.5
2015-Aug-26 14:33N 51°26' W 002°58'1010.4
2015-Aug-26 13:33N 51°30' W 002°43'0 0.3
2015-Aug-26 12:33N 51°30' W 002°42'0 0.0
2015-Aug-26 11:33N 51°30' W 002°42'0 0.0
2015-Aug-26 10:33N 51°30' W 002°42'0 0.0
2015-Aug-26 09:33N 51°30' W 002°42'0 0.0
2015-Aug-26 08:33N 51°30' W 002°42'0 0.0
2015-Aug-26 07:33N 51°30' W 002°42'0 0.0
2015-Aug-26 06:33N 51°30' W 002°42'0 0.0
2015-Aug-26 05:33N 51°30' W 002°42'0 0.0
2015-Aug-26 04:33N 51°30' W 002°42'0 0.0
2015-Aug-26 03:33N 51°30' W 002°42'0 0.0
2015-Aug-26 02:33N 51°30' W 002°42'0 0.0
2015-Aug-26 01:33N 51°30' W 002°42'0 0.0
2015-Aug-26 00:33N 51°30' W 002°42'0 0.0
2015-Aug-25 23:33N 51°30' W 002°42'0 0.0
2015-Aug-25 22:33N 51°30' W 002°42'0 0.0
2015-Aug-25 21:33N 51°30' W 002°42'0 0.0
2015-Aug-25 20:33N 51°30' W 002°42'0 0.0
2015-Aug-25 19:33N 51°30' W 002°42'0 0.0
2015-Aug-25 18:33N 51°30' W 002°42'0 0.0
2015-Aug-25 17:33N 51°30' W 002°42'0 0.0
2015-Aug-25 16:33N 51°30' W 002°42'0 0.0
2015-Aug-25 15:33N 51°30' W 002°42'0 0.5
2015-Aug-25 14:33N 51°30' W 002°43'8 8.0
2015-Aug-25 13:33N 51°28' W 002°55'106 9.5
2015-Aug-25 02:26N 52°10' W 005°32'2412.4
2015-Aug-25 00:29N 52°34' W 005°33'6114.2
2015-Aug-24 20:13N 53°34' W 005°49'1014.4
2015-Aug-24 19:33N 53°43' W 005°54'1414.1
2015-Aug-24 18:33N 53°57' W 006°01'1211.7
2015-Aug-24 17:31N 54°06' W 006°15'2 0.2
2015-Aug-24 04:18N 54°04' W 006°12'1013.5
2015-Aug-24 03:33N 53°56' W 006°01'18610.8
2015-Aug-23 10:22N 51°26' W 003°01'1011.7
2015-Aug-23 09:34N 51°30' W 002°48'  

Dump ship's entire track history